OICS  Sanandaj  Airport

Iran

Add Bookmark
ICAO OICS
IATA SDG
Type Airport
Status Operational
Latitude
35° 14' 45" N
35.245899
Longitude
47° 0' 33" E
47.009201
Local (GMT +4.5 ) UTC
May 6, 2016 10:03 am May 6, 2016 05:33
Sunrise-Sunset Local UTC
Begin Civil Twilight 05:55 am 01:25
Sunrise 06:23 am 01:53
Sunset 08:13 pm 15:43
End Civil Twilight 08:41 pm 16:11
VFR
VFR
MVFR
MVFR
IFR
IFR
LIFR
LIFR
Unknown
Unavailable

Current Weather

METAR Observed MVFR
OICS 060500Z 21006KT 6000 -SHRA FEW035CB SCT040 BKN100 13/09 Q1019 Fri, May 6, 2016 @ 05:00 UTC
(33 Minutes ago)
Marginal Visual Flight Rules
Wind Visibility Clouds Conditions
210° at 6 knots (11 kph) 6,003 m
  • Few at 3,500 ft AGL
  • Scattered at 4,000 ft AGL
  • Broken at 10,000 ft AGL
  • Light Rain Showers
Temperatures Readings Precipitation
Current Temp
13°C
55°F
Dewpoint
9°C
48°F
Humidity 77%
Altimeter 30.09" Hg
Sea Level Pressure 1,019 mb
Field Elevation
1,373 m
4,505 ft
None Recorded
-
-

CheckWX.com is intended as a tool to help pilots better visualize weather data. It is not intended as a substitute for an official weather briefing obtained from a Flight Service Station. CheckWX.com does not meet the FAA requirements for an official pre-flight weather briefing. Therefore, it's important that pilots still call and obtain an official FSS pre-flight weather briefing.

© 2007-2016 CheckWX.com
05:33:12 UTC